Time;durP1;ratioP1;P1;durP2;ratioP2;P2;SDS_P1;SDS_P2;PMS_P1;PMS_P2;Temp;Humidity;BMP_temperature;BMP_pressure;BME280_temperature;BME280_humidity;BME280_pressure;Samples;Min_cycle;Max_cycle;Signal;HPM_P1;HPM_P2
2023/10/31 00:00:38;;;;;;;10.80;1.65;;;10.90;95.20;;;;;;5086259;28;20402;-74
2023/10/31 00:03:04;;;;;;;9.50;1.60;;;10.90;95.10;;;;;;5087914;28;20430;-74
2023/10/31 00:05:29;;;;;;;10.88;1.27;;;10.90;95.30;;;;;;5090162;28;20398;-74
2023/10/31 00:07:55;;;;;;;7.87;1.23;;;10.90;95.50;;;;;;5090095;28;20815;-74
2023/10/31 00:10:20;;;;;;;8.75;1.50;;;10.90;95.30;;;;;;5090198;28;20429;-74
2023/10/31 00:12:46;;;;;;;8.03;1.67;;;10.90;95.70;;;;;;5073264;28;20869;-74
2023/10/31 00:15:12;;;;;;;5.72;1.13;;;10.90;95.70;;;;;;5091311;28;20417;-74
2023/10/31 00:17:38;;;;;;;10.27;1.50;;;10.90;95.80;;;;;;5089812;28;20412;-74
2023/10/31 00:20:05;;;;;;;7.75;1.42;;;10.90;95.80;;;;;;5091595;28;20394;-74
2023/10/31 00:22:30;;;;;;;11.75;1.52;;;10.90;95.70;;;;;;5089796;28;20429;-74
2023/10/31 00:24:56;;;;;;;7.80;1.23;;;10.90;95.80;;;;;;5089664;28;20402;-74
2023/10/31 00:27:21;;;;;;;8.80;1.40;;;10.90;95.70;;;;;;5091204;28;20424;-74
2023/10/31 00:29:47;;;;;;;8.68;1.38;;;10.90;95.60;;;;;;5090602;28;20486;-73
2023/10/31 00:32:13;;;;;;;7.47;1.40;;;10.90;95.60;;;;;;5091198;28;20428;-74
2023/10/31 00:34:38;;;;;;;11.05;1.70;;;10.90;95.60;;;;;;5090837;28;20447;-74
2023/10/31 00:37:04;;;;;;;8.30;1.50;;;10.80;95.80;;;;;;5091032;28;20398;-74
2023/10/31 00:39:30;;;;;;;7.32;1.70;;;10.90;95.70;;;;;;5089560;28;20402;-75
2023/10/31 00:41:55;;;;;;;11.73;1.60;;;10.90;95.70;;;;;;5089851;28;20493;-74
2023/10/31 00:44:21;;;;;;;9.13;1.90;;;10.90;95.80;;;;;;5090680;28;20525;-74
2023/10/31 00:46:47;;;;;;;9.55;1.33;;;10.90;95.80;;;;;;5089647;28;20438;-74
2023/10/31 00:49:12;;;;;;;7.57;1.63;;;10.90;95.70;;;;;;5088867;28;20405;-74
2023/10/31 00:51:38;;;;;;;9.45;1.58;;;10.90;95.90;;;;;;5089621;28;20511;-74
2023/10/31 00:54:04;;;;;;;7.87;1.70;;;10.90;95.80;;;;;;5090708;28;20406;-74
2023/10/31 00:56:29;;;;;;;10.35;1.92;;;10.90;95.80;;;;;;5090866;28;20394;-74
2023/10/31 00:58:55;;;;;;;9.40;2.03;;;10.90;96.10;;;;;;5088908;28;20491;-74
2023/10/31 01:01:20;;;;;;;11.23;1.90;;;10.90;96.00;;;;;;5089287;28;20911;-74
2023/10/31 01:03:46;;;;;;;9.83;2.13;;;10.90;95.90;;;;;;5088956;28;20467;-74
2023/10/31 01:06:12;;;;;;;7.07;1.60;;;10.90;95.80;;;;;;5090491;28;20409;-74
2023/10/31 01:08:37;;;;;;;10.13;2.00;;;10.90;96.00;;;;;;5089671;28;20409;-74
2023/10/31 01:11:03;;;;;;;9.82;2.10;;;10.90;96.20;;;;;;5088751;28;20756;-74
2023/10/31 01:13:29;;;;;;;9.10;1.97;;;10.90;96.40;;;;;;5089984;28;20402;-74
2023/10/31 01:15:54;;;;;;;8.57;1.80;;;10.90;96.50;;;;;;5071299;28;20402;-74
2023/10/31 01:18:20;;;;;;;11.57;2.38;;;10.90;96.20;;;;;;5088916;28;20406;-74
2023/10/31 01:20:46;;;;;;;8.90;2.17;;;10.90;96.30;;;;;;5089075;28;20438;-74
2023/10/31 01:23:11;;;;;;;9.73;1.90;;;10.90;96.40;;;;;;5075359;28;20583;-74
2023/10/31 01:25:37;;;;;;;10.80;2.03;;;10.90;96.20;;;;;;5090161;28;20410;-74
2023/10/31 01:28:03;;;;;;;9.40;1.90;;;10.90;96.40;;;;;;5088842;28;20402;-74
2023/10/31 01:30:28;;;;;;;13.10;2.10;;;10.90;96.70;;;;;;5088946;28;20398;-74
2023/10/31 01:32:54;;;;;;;9.43;1.97;;;10.90;96.80;;;;;;5089849;28;20402;-74
2023/10/31 01:35:19;;;;;;;6.88;1.65;;;10.90;96.90;;;;;;5088371;28;20823;-74
2023/10/31 01:37:45;;;;;;;7.17;1.90;;;10.90;96.80;;;;;;5089483;28;20489;-74
2023/10/31 01:40:14;;;;;;;6.82;1.60;;;10.80;96.60;;;;;;5090541;28;20404;-74
2023/10/31 01:42:39;;;;;;;6.05;1.58;;;10.80;96.60;;;;;;5088024;28;20429;-74
2023/10/31 01:45:06;;;;;;;8.10;1.73;;;10.80;96.60;;;;;;5088201;28;20416;-74
2023/10/31 01:47:32;;;;;;;8.18;1.73;;;10.80;96.90;;;;;;5088170;28;20409;-74
2023/10/31 01:49:59;;;;;;;7.07;2.10;;;10.80;97.00;;;;;;5088250;28;20398;-74
2023/10/31 01:52:25;;;;;;;8.40;2.55;;;10.80;97.00;;;;;;5089010;28;20751;-74
2023/10/31 01:54:51;;;;;;;10.15;2.50;;;10.80;97.20;;;;;;5071226;28;20402;-74
2023/10/31 01:57:18;;;;;;;5.25;1.70;;;10.70;97.10;;;;;;5089450;28;20818;-74
2023/10/31 01:59:44;;;;;;;9.30;2.27;;;10.80;97.10;;;;;;5087839;28;20406;-74
2023/10/31 02:02:10;;;;;;;6.93;2.50;;;10.70;97.30;;;;;;5086809;28;20482;-74
2023/10/31 02:04:36;;;;;;;6.88;2.30;;;10.80;97.40;;;;;;5079945;28;20501;-74
2023/10/31 02:07:01;;;;;;;6.57;2.00;;;10.80;97.50;;;;;;5088657;28;20517;-73
2023/10/31 02:09:29;;;;;;;6.57;2.15;;;10.70;97.30;;;;;;5087181;28;20814;-74
2023/10/31 02:11:54;;;;;;;5.68;1.70;;;10.70;97.50;;;;;;5084330;28;20406;-74
2023/10/31 02:14:23;;;;;;;6.30;1.25;;;10.70;97.40;;;;;;5088762;28;20409;-74
2023/10/31 02:16:49;;;;;;;4.00;1.20;;;10.70;97.50;;;;;;5088716;28;20405;-74
2023/10/31 02:19:19;;;;;;;5.60;1.27;;;10.70;97.60;;;;;;5086968;28;20402;-74
2023/10/31 02:21:44;;;;;;;6.03;1.08;;;10.70;97.60;;;;;;5084305;28;20406;-74
2023/10/31 02:24:10;;;;;;;5.85;1.05;;;10.70;97.50;;;;;;5087537;28;20426;-74
2023/10/31 02:26:36;;;;;;;7.17;1.20;;;10.70;97.60;;;;;;5087335;28;20398;-74
2023/10/31 02:29:02;;;;;;;7.85;1.35;;;10.70;97.60;;;;;;5087233;28;20765;-74
2023/10/31 02:31:28;;;;;;;7.82;1.08;;;10.60;97.60;;;;;;5088689;28;20961;-74
2023/10/31 02:33:54;;;;;;;6.45;1.23;;;10.60;97.40;;;;;;5087894;28;20815;-74
2023/10/31 02:36:20;;;;;;;8.93;2.22;;;10.60;97.60;;;;;;5086576;28;20406;-74
2023/10/31 02:38:46;;;;;;;7.97;1.33;;;10.50;97.60;;;;;;5084194;28;20793;-74
2023/10/31 02:41:12;;;;;;;10.45;1.83;;;10.50;97.30;;;;;;5089082;28;20394;-74
2023/10/31 02:43:39;;;;;;;5.90;1.40;;;10.50;97.40;;;;;;5088309;28;20976;-74
2023/10/31 02:46:04;;;;;;;9.38;1.50;;;10.50;97.50;;;;;;5087407;28;20402;-74
2023/10/31 02:48:37;;;;;;;12.60;1.85;;;10.50;97.60;;;;;;5088281;28;20409;-74
2023/10/31 02:51:09;;;;;;;8.50;1.30;;;10.50;97.60;;;;;;5088648;28;20398;-74
2023/10/31 02:53:36;;;;;;;7.55;1.50;;;10.50;97.70;;;;;;5073889;28;20423;-74
2023/10/31 02:56:02;;;;;;;6.00;1.40;;;10.40;97.80;;;;;;5069130;28;20465;-74
2023/10/31 02:58:28;;;;;;;6.50;1.30;;;10.40;97.80;;;;;;5073741;28;20402;-74
2023/10/31 03:00:53;;;;;;;8.57;1.40;;;10.40;97.80;;;;;;5086600;28;20408;-74
2023/10/31 03:03:19;;;;;;;8.83;1.77;;;10.40;97.90;;;;;;5078922;28;21237;-74
2023/10/31 03:05:45;;;;;;;7.07;1.70;;;10.50;97.90;;;;;;5082640;28;20405;-74
2023/10/31 03:08:12;;;;;;;8.87;2.00;;;10.50;97.80;;;;;;5086817;28;20526;-74
2023/10/31 03:10:39;;;;;;;6.87;1.90;;;10.50;97.80;;;;;;5087089;28;20410;-74
2023/10/31 03:13:04;;;;;;;10.73;1.95;;;10.50;97.40;;;;;;5086855;28;20463;-74
2023/10/31 03:15:30;;;;;;;6.72;2.15;;;10.50;97.40;;;;;;5086390;28;20406;-74
2023/10/31 03:17:55;;;;;;;8.57;2.30;;;10.40;97.60;;;;;;5086698;28;20401;-74
2023/10/31 03:20:21;;;;;;;9.47;1.83;;;10.50;97.80;;;;;;5086886;28;20406;-74
2023/10/31 03:22:47;;;;;;;8.20;1.92;;;10.40;97.60;;;;;;5088061;28;20440;-74
2023/10/31 03:25:12;;;;;;;7.97;1.80;;;10.40;97.70;;;;;;5086818;28;20841;-74
2023/10/31 03:27:38;;;;;;;7.75;1.65;;;10.40;97.70;;;;;;5074245;28;20396;-74
2023/10/31 03:30:04;;;;;;;8.80;1.87;;;10.50;97.80;;;;;;5085337;28;20406;-74
2023/10/31 03:32:30;;;;;;;8.27;1.67;;;10.50;97.80;;;;;;5087110;28;20402;-74
2023/10/31 03:34:56;;;;;;;7.53;1.43;;;10.50;97.80;;;;;;5086195;28;20969;-74
2023/10/31 03:37:21;;;;;;;7.35;1.60;;;10.50;97.90;;;;;;5086507;28;20405;-74
2023/10/31 03:39:47;;;;;;;7.50;1.77;;;10.50;98.20;;;;;;5091367;28;20447;-74
2023/10/31 03:42:12;;;;;;;8.75;1.83;;;10.50;98.20;;;;;;5091910;28;20502;-74
2023/10/31 03:44:38;;;;;;;10.20;2.03;;;10.50;98.40;;;;;;5073319;28;20412;-74
2023/10/31 03:47:04;;;;;;;12.23;1.67;;;10.50;98.40;;;;;;5091096;28;20441;-73
2023/10/31 03:49:32;;;;;;;10.75;1.98;;;10.50;98.40;;;;;;5091998;28;20964;-73
2023/10/31 03:51:58;;;;;;;11.25;1.98;;;10.50;98.30;;;;;;5091060;28;20467;-73
2023/10/31 03:54:24;;;;;;;15.65;2.05;;;10.50;98.30;;;;;;5089657;28;20402;-74
2023/10/31 03:56:49;;;;;;;12.23;1.83;;;10.50;98.20;;;;;;5090858;28;20394;-74
2023/10/31 03:59:15;;;;;;;11.82;1.90;;;10.60;98.10;;;;;;5090231;28;20402;-74
2023/10/31 04:01:41;;;;;;;9.70;1.70;;;10.60;97.90;;;;;;5080341;28;20415;-74
2023/10/31 04:04:06;;;;;;;12.15;1.58;;;10.60;98.10;;;;;;5087552;28;20955;-74
2023/10/31 04:06:32;;;;;;;10.60;1.67;;;10.60;98.40;;;;;;5090422;28;20462;-74
2023/10/31 04:08:57;;;;;;;8.63;1.57;;;10.60;98.10;;;;;;5089951;28;20406;-74
2023/10/31 04:11:23;;;;;;;7.20;1.80;;;10.60;98.50;;;;;;5073588;28;20643;-74
2023/10/31 04:13:49;;;;;;;11.10;2.30;;;10.60;98.70;;;;;;5089844;28;20413;-74
2023/10/31 04:16:15;;;;;;;11.73;2.60;;;10.50;98.40;;;;;;5091654;28;20417;-74
2023/10/31 04:18:40;;;;;;;12.18;2.92;;;10.50;98.60;;;;;;5089924;28;20912;-74
2023/10/31 04:21:06;;;;;;;11.40;3.70;;;10.50;98.80;;;;;;5073462;28;20517;-74
2023/10/31 04:23:31;;;;;;;11.73;3.88;;;10.50;99.10;;;;;;5089786;28;20487;-74
2023/10/31 04:25:57;;;;;;;12.53;4.30;;;10.50;99.20;;;;;;5090961;28;20483;-74
2023/10/31 04:28:23;;;;;;;13.00;3.53;;;10.50;99.50;;;;;;5089957;28;20414;-74
2023/10/31 04:30:48;;;;;;;12.43;3.80;;;10.50;99.40;;;;;;5090441;28;20406;-74
2023/10/31 04:33:14;;;;;;;11.40;3.55;;;10.50;99.20;;;;;;5090698;28;20394;-74
2023/10/31 04:35:39;;;;;;;9.53;3.10;;;10.50;99.40;;;;;;5089689;28;20493;-74
2023/10/31 04:38:05;;;;;;;9.43;2.60;;;10.50;99.50;;;;;;5089416;28;20422;-74
2023/10/31 04:40:31;;;;;;;8.90;2.70;;;10.50;99.50;;;;;;5072902;28;21025;-74
2023/10/31 04:42:56;;;;;;;10.50;2.80;;;10.40;99.50;;;;;;5072347;28;20429;-74
2023/10/31 04:45:22;;;;;;;10.68;2.75;;;10.40;99.60;;;;;;5089594;28;20410;-74
2023/10/31 04:47:48;;;;;;;8.70;2.93;;;10.40;99.90;;;;;;5090292;28;20880;-74
2023/10/31 04:50:13;;;;;;;8.40;2.97;;;10.40;99.80;;;;;;5088415;28;20391;-74
2023/10/31 04:52:39;;;;;;;12.17;3.83;;;10.40;99.90;;;;;;5089275;28;20456;-73
2023/10/31 04:55:05;;;;;;;12.23;3.67;;;10.40;99.90;;;;;;5089441;28;20843;-74
2023/10/31 04:57:31;;;;;;;13.63;3.85;;;10.40;99.90;;;;;;5090316;28;20402;-74
2023/10/31 04:59:58;;;;;;;9.25;3.72;;;10.40;99.90;;;;;;5089155;28;20804;-74
2023/10/31 05:02:23;;;;;;;9.27;3.25;;;10.40;99.90;;;;;;5077056;28;20924;-74
2023/10/31 05:04:50;;;;;;;9.33;3.80;;;10.40;99.90;;;;;;5089115;28;20458;-74
2023/10/31 05:07:17;;;;;;;11.35;3.97;;;10.40;99.90;;;;;;5090227;28;20409;-74
2023/10/31 05:09:42;;;;;;;9.32;3.80;;;10.40;99.90;;;;;;5089256;28;20950;-74
2023/10/31 05:12:08;;;;;;;7.67;3.33;;;10.40;99.90;;;;;;5088586;28;20536;-74
2023/10/31 05:14:34;;;;;;;7.03;3.40;;;10.40;99.90;;;;;;5090203;28;20500;-74
2023/10/31 05:16:59;;;;;;;10.80;4.30;;;10.50;99.90;;;;;;5088375;28;20757;-74
2023/10/31 05:19:25;;;;;;;7.97;3.43;;;10.40;99.90;;;;;;5089149;28;20406;-74
2023/10/31 05:21:51;;;;;;;8.87;3.27;;;10.40;99.90;;;;;;5088673;28;20410;-74
2023/10/31 05:24:17;;;;;;;8.17;3.20;;;10.40;99.90;;;;;;5071729;28;20889;-73
2023/10/31 05:26:43;;;;;;;8.07;3.05;;;10.40;99.90;;;;;;5089303;28;20406;-74
2023/10/31 05:29:09;;;;;;;6.03;2.28;;;10.40;99.90;;;;;;5089040;28;20409;-74
2023/10/31 05:31:34;;;;;;;8.27;2.70;;;10.40;99.90;;;;;;5071522;28;20402;-74
2023/10/31 05:34:00;;;;;;;7.80;2.67;;;10.40;99.90;;;;;;5088346;28;20807;-74
2023/10/31 05:36:27;;;;;;;7.13;2.15;;;10.30;99.90;;;;;;5089555;28;20930;-74
2023/10/31 05:38:53;;;;;;;6.13;2.38;;;10.30;99.90;;;;;;5089825;28;20412;-74
2023/10/31 05:41:19;;;;;;;7.85;2.30;;;10.30;99.90;;;;;;5088224;28;20414;-74
2023/10/31 05:43:45;;;;;;;5.83;1.97;;;10.30;99.90;;;;;;5088512;28;20430;-74
2023/10/31 05:46:12;;;;;;;7.20;2.00;;;10.30;99.90;;;;;;5088604;28;20430;-74
2023/10/31 05:48:46;;;;;;;8.70;1.98;;;10.30;99.90;;;;;;5088199;28;20405;-74
2023/10/31 05:51:15;;;;;;;7.57;1.60;;;10.30;99.90;;;;;;5076721;28;20416;-74
2023/10/31 05:53:43;;;;;;;6.60;1.40;;;10.30;99.90;;;;;;5087812;28;20501;-73
2023/10/31 05:56:09;;;;;;;5.35;1.52;;;10.20;99.90;;;;;;5088172;28;20420;-73
2023/10/31 05:58:37;;;;;;;6.45;1.70;;;10.20;99.90;;;;;;5088596;28;20410;-74
2023/10/31 06:01:03;;;;;;;6.75;1.73;;;10.20;99.90;;;;;;5083030;28;20457;-73
2023/10/31 06:03:28;;;;;;;5.38;1.67;;;10.20;99.90;;;;;;5082016;28;20418;-73
2023/10/31 06:05:54;;;;;;;5.10;1.80;;;10.20;99.90;;;;;;5087457;28;20402;-73
2023/10/31 06:08:20;;;;;;;5.60;1.97;;;10.20;99.90;;;;;;5089574;28;20473;-73
2023/10/31 06:10:45;;;;;;;5.53;2.00;;;10.30;99.90;;;;;;5087669;28;20416;-74
2023/10/31 06:13:11;;;;;;;8.60;2.57;;;10.20;99.90;;;;;;5088416;28;20750;-74
2023/10/31 06:15:37;;;;;;;5.80;2.30;;;10.20;99.90;;;;;;5088033;28;20459;-71
2023/10/31 06:18:03;;;;;;;6.97;2.20;;;10.30;99.90;;;;;;5087830;28;20935;-71
2023/10/31 06:20:28;;;;;;;7.90;2.53;;;10.30;99.90;;;;;;5088242;28;20430;-73
2023/10/31 06:22:54;;;;;;;6.95;2.45;;;10.30;99.90;;;;;;5095556;28;21150;-73
2023/10/31 06:25:20;;;;;;;6.28;2.30;;;10.30;99.90;;;;;;5079759;28;20483;-74
2023/10/31 06:27:45;;;;;;;4.80;2.07;;;10.30;99.90;;;;;;5077418;28;20487;-74
2023/10/31 06:30:11;;;;;;;4.95;2.20;;;10.30;99.90;;;;;;5087664;28;20398;-74
2023/10/31 06:32:39;;;;;;;5.33;1.87;;;10.30;99.90;;;;;;5087960;28;20811;-74
2023/10/31 06:35:06;;;;;;;4.22;1.60;;;10.40;99.90;;;;;;5088295;28;20410;-74
2023/10/31 06:37:31;;;;;;;7.10;1.83;;;10.30;99.90;;;;;;5087239;28;20417;-74
2023/10/31 06:39:57;;;;;;;5.00;1.90;;;10.40;99.90;;;;;;5065989;28;20420;-74
2023/10/31 06:42:22;;;;;;;5.82;1.73;;;10.40;99.90;;;;;;5078672;28;20422;-74
2023/10/31 06:44:48;;;;;;;4.77;1.87;;;10.40;99.90;;;;;;5086910;28;20874;-74
2023/10/31 06:47:14;;;;;;;5.57;1.75;;;10.40;99.90;;;;;;5087411;28;20411;-74
2023/10/31 06:49:40;;;;;;;4.40;1.70;;;10.30;99.90;;;;;;5055447;28;20465;-74
2023/10/31 06:52:05;;;;;;;5.03;2.07;;;10.30;99.90;;;;;;5081315;28;20398;-74
2023/10/31 06:54:31;;;;;;;5.10;1.80;;;10.40;99.90;;;;;;5087063;28;20402;-74
2023/10/31 06:56:57;;;;;;;4.07;1.98;;;10.40;99.90;;;;;;5087108;28;20414;-74
2023/10/31 06:59:22;;;;;;;4.90;1.80;;;10.40;99.90;;;;;;5086495;28;20489;-75
2023/10/31 07:01:48;;;;;;;5.13;1.90;;;10.40;99.90;;;;;;5074560;28;20758;-74
2023/10/31 07:04:13;;;;;;;7.27;2.40;;;10.40;99.90;;;;;;5087399;28;20429;-74
2023/10/31 07:06:39;;;;;;;5.95;2.40;;;10.40;99.90;;;;;;5088294;28;20899;-74
2023/10/31 07:09:05;;;;;;;7.33;2.80;;;10.40;99.90;;;;;;5087760;28;20473;-74
2023/10/31 07:11:33;;;;;;;9.65;2.80;;;10.40;99.90;;;;;;5087966;28;20829;-74
2023/10/31 07:14:02;;;;;;;7.67;3.17;;;10.40;99.90;;;;;;5087089;28;20428;-74
2023/10/31 07:16:29;;;;;;;6.95;2.92;;;10.40;99.90;;;;;;5087510;28;20430;-74
2023/10/31 07:18:54;;;;;;;5.50;3.00;;;10.40;99.90;;;;;;5088007;28;20900;-74
2023/10/31 07:21:20;;;;;;;6.32;2.70;;;10.50;99.90;;;;;;5086780;28;20482;-74
2023/10/31 07:23:46;;;;;;;8.25;3.17;;;10.50;99.90;;;;;;5087647;28;20433;-74
2023/10/31 07:26:12;;;;;;;5.78;2.85;;;10.50;99.90;;;;;;5087623;28;20488;-74
2023/10/31 07:28:37;;;;;;;7.57;3.07;;;10.50;99.90;;;;;;5087465;28;20436;-74
2023/10/31 07:31:04;;;;;;;8.13;3.30;;;10.50;99.90;;;;;;5069522;28;20406;-74
2023/10/31 07:33:30;;;;;;;7.47;3.20;;;10.50;99.90;;;;;;5087422;28;20402;-74
2023/10/31 07:35:55;;;;;;;8.97;3.20;;;10.50;99.90;;;;;;5087239;28;20906;-75
2023/10/31 07:38:21;;;;;;;7.03;2.95;;;10.50;99.90;;;;;;5086004;28;20826;-75
2023/10/31 07:40:47;;;;;;;7.23;2.70;;;10.50;99.90;;;;;;5088320;28;20390;-74
2023/10/31 07:43:14;;;;;;;11.03;2.87;;;10.60;99.90;;;;;;5087575;28;20538;-74
2023/10/31 07:45:39;;;;;;;6.03;2.53;;;10.50;99.90;;;;;;5086535;28;20490;-74
2023/10/31 07:48:05;;;;;;;7.23;2.30;;;10.50;99.90;;;;;;5087587;28;20496;-74
2023/10/31 07:50:31;;;;;;;6.60;2.40;;;10.60;99.90;;;;;;5086210;28;20413;-74
2023/10/31 07:52:56;;;;;;;8.37;2.60;;;10.60;99.90;;;;;;5086298;28;20402;-74
2023/10/31 07:55:22;;;;;;;7.30;2.70;;;10.60;99.90;;;;;;5087363;28;20943;-75
2023/10/31 07:57:48;;;;;;;8.65;2.70;;;10.60;99.90;;;;;;5086906;28;20734;-74
2023/10/31 08:00:13;;;;;;;8.13;2.83;;;10.60;99.90;;;;;;5086033;28;20485;-74
2023/10/31 08:02:39;;;;;;;7.88;2.70;;;10.70;99.90;;;;;;5081335;28;20776;-74
2023/10/31 08:05:07;;;;;;;6.37;2.30;;;10.70;99.90;;;;;;5080514;28;20771;-74
2023/10/31 08:07:32;;;;;;;6.32;2.40;;;10.70;99.90;;;;;;5086279;28;20911;-75
2023/10/31 08:09:58;;;;;;;9.50;2.77;;;10.80;99.90;;;;;;5088143;28;20398;-74
2023/10/31 08:12:24;;;;;;;7.28;2.45;;;10.80;99.90;;;;;;5085589;28;20433;-74
2023/10/31 08:14:49;;;;;;;8.07;2.70;;;10.80;99.90;;;;;;5073659;28;21109;-74
2023/10/31 08:17:15;;;;;;;8.63;2.50;;;10.80;99.90;;;;;;5085289;28;20397;-75
2023/10/31 08:19:42;;;;;;;7.70;2.58;;;10.80;99.90;;;;;;5087083;28;20401;-74
2023/10/31 08:22:08;;;;;;;9.25;2.38;;;10.90;99.90;;;;;;5085745;28;20486;-74
2023/10/31 08:24:35;;;;;;;8.10;2.40;;;10.90;99.90;;;;;;5088604;28;20398;-74
2023/10/31 08:27:02;;;;;;;5.55;2.13;;;10.90;99.90;;;;;;5090537;28;20398;-75
2023/10/31 08:29:27;;;;;;;9.93;3.60;;;11.00;99.90;;;;;;5090630;28;20398;-74
2023/10/31 08:31:53;;;;;;;7.30;1.92;;;11.00;99.90;;;;;;5091221;28;20413;-74
2023/10/31 08:34:18;;;;;;;5.93;1.70;;;11.00;99.90;;;;;;5091031;28;20406;-75
2023/10/31 08:36:44;;;;;;;5.80;1.40;;;11.10;99.90;;;;;;5090287;28;20903;-75
2023/10/31 08:39:10;;;;;;;6.60;1.43;;;11.10;99.90;;;;;;5089869;28;20483;-75
2023/10/31 08:41:37;;;;;;;6.00;1.23;;;11.20;99.90;;;;;;5088726;28;20903;-74
2023/10/31 08:44:03;;;;;;;5.15;1.15;;;11.20;99.90;;;;;;5091244;28;20421;-75
2023/10/31 08:46:29;;;;;;;8.85;1.35;;;11.30;99.90;;;;;;5090670;28;20401;-75
2023/10/31 08:48:54;;;;;;;6.13;1.30;;;11.30;99.90;;;;;;5090802;28;20558;-75
2023/10/31 08:51:20;;;;;;;6.30;1.27;;;11.30;99.90;;;;;;5089224;28;20828;-75
2023/10/31 08:53:45;;;;;;;5.67;1.00;;;11.30;99.90;;;;;;5089856;28;20926;-75
2023/10/31 08:56:11;;;;;;;4.93;0.80;;;11.40;99.90;;;;;;5089587;28;20405;-75
2023/10/31 08:58:36;;;;;;;7.33;0.93;;;11.40;99.90;;;;;;5090142;28;20397;-75
2023/10/31 09:01:02;;;;;;;7.10;0.90;;;11.40;99.90;;;;;;5084250;28;20407;-75
2023/10/31 09:03:28;;;;;;;4.65;0.65;;;11.50;99.90;;;;;;5083534;28;20433;-75
2023/10/31 09:05:54;;;;;;;5.27;0.70;;;11.50;99.90;;;;;;5090601;28;20402;-75
2023/10/31 09:08:19;;;;;;;4.32;0.50;;;11.60;99.90;;;;;;5089068;28;20402;-74
2023/10/31 09:10:46;;;;;;;6.15;0.60;;;11.60;99.90;;;;;;5089956;28;20402;-75
2023/10/31 09:13:12;;;;;;;7.90;0.77;;;11.60;99.90;;;;;;5089213;28;20451;-75
2023/10/31 09:15:38;;;;;;;7.60;0.73;;;11.50;99.90;;;;;;5089146;28;20406;-75
2023/10/31 09:18:04;;;;;;;8.48;0.80;;;11.50;99.90;;;;;;5090424;28;20402;-75
2023/10/31 09:20:29;;;;;;;8.95;0.90;;;11.40;99.90;;;;;;5089886;28;20432;-74
2023/10/31 09:22:56;;;;;;;8.37;0.80;;;11.40;99.90;;;;;;5090841;28;20430;-75
2023/10/31 09:25:21;;;;;;;7.68;1.58;;;11.30;99.90;;;;;;5088484;28;20406;-75
2023/10/31 09:27:47;;;;;;;8.23;1.20;;;11.30;99.90;;;;;;5072026;28;20398;-75
2023/10/31 09:30:13;;;;;;;7.10;0.73;;;11.30;99.90;;;;;;5088585;28;20414;-75
2023/10/31 09:32:38;;;;;;;7.65;0.70;;;11.30;99.90;;;;;;5089325;28;20433;-75
2023/10/31 09:35:05;;;;;;;8.52;1.10;;;11.30;99.50;;;;;;5088365;28;20406;-75
2023/10/31 09:37:31;;;;;;;6.33;0.80;;;11.30;99.30;;;;;;5088382;28;20412;-75
2023/10/31 09:39:57;;;;;;;4.00;0.70;;;11.30;99.20;;;;;;5088558;28;20490;-75
2023/10/31 09:42:22;;;;;;;6.55;0.50;;;11.30;98.70;;;;;;5088606;28;20392;-75
2023/10/31 09:44:48;;;;;;;5.43;0.60;;;11.30;98.50;;;;;;5088045;28;20402;-75
2023/10/31 09:47:15;;;;;;;6.43;0.73;;;11.40;98.30;;;;;;5088070;28;20394;-75
2023/10/31 09:49:41;;;;;;;6.50;0.80;;;11.40;98.00;;;;;;5088279;28;20900;-75
2023/10/31 09:52:07;;;;;;;5.72;0.40;;;11.40;97.50;;;;;;5088561;28;20920;-75
2023/10/31 09:54:34;;;;;;;3.42;0.30;;;11.40;97.00;;;;;;5076834;28;20768;-75
2023/10/31 09:56:59;;;;;;;5.72;0.30;;;11.40;96.30;;;;;;5089597;28;20425;-75
2023/10/31 09:59:25;;;;;;;5.88;0.63;;;11.40;95.80;;;;;;5087061;28;20907;-75
2023/10/31 10:01:51;;;;;;;5.53;0.70;;;11.40;95.70;;;;;;5077118;28;20395;-75
2023/10/31 10:04:17;;;;;;;6.28;0.60;;;11.40;95.40;;;;;;5088339;28;20513;-75
2023/10/31 10:07:16;;;;;;;6.53;0.70;;;11.40;95.70;;;;;;5089500;28;20394;-75
2023/10/31 10:09:43;;;;;;;3.65;0.60;;;11.40;95.40;;;;;;5080242;28;20410;-75
2023/10/31 10:12:17;;;;;;;5.17;0.80;;;11.50;95.70;;;;;;5087513;28;20428;-75
2023/10/31 10:14:46;;;;;;;6.23;0.63;;;11.60;96.20;;;;;;5089205;28;20845;-75
2023/10/31 10:17:22;;;;;;;5.90;0.97;;;11.60;94.90;;;;;;5089095;28;20987;-75
2023/10/31 10:19:48;;;;;;;6.38;0.82;;;11.70;94.80;;;;;;5089199;28;20414;-75
2023/10/31 10:22:14;;;;;;;2.13;0.30;;;11.80;94.10;;;;;;5088784;28;20497;-75
2023/10/31 10:24:41;;;;;;;3.83;0.30;;;11.80;93.00;;;;;;5088617;28;20406;-75
2023/10/31 10:27:08;;;;;;;2.28;0.13;;;11.70;92.70;;;;;;5088788;28;20927;-75
2023/10/31 10:29:35;;;;;;;3.58;0.57;;;11.70;92.30;;;;;;5089333;28;20393;-75
2023/10/31 10:32:01;;;;;;;6.30;0.60;;;11.70;92.00;;;;;;5087745;28;20419;-75
2023/10/31 10:34:26;;;;;;;5.38;0.38;;;11.70;92.10;;;;;;5088464;28;20756;-75
2023/10/31 10:36:53;;;;;;;3.40;0.30;;;11.70;92.20;;;;;;5087543;28;20398;-75
2023/10/31 10:39:21;;;;;;;4.07;0.30;;;11.70;91.20;;;;;;5087076;28;20934;-75
2023/10/31 10:41:58;;;;;;;3.90;0.40;;;11.60;91.60;;;;;;5075425;28;20405;-75
2023/10/31 10:44:34;;;;;;;4.18;0.60;;;11.60;91.40;;;;;;5087192;28;20429;-75
2023/10/31 10:47:03;;;;;;;5.20;0.45;;;11.60;91.60;;;;;;5087210;28;20404;-75
2023/10/31 10:49:32;;;;;;;6.18;0.55;;;11.70;92.90;;;;;;5086057;28;20458;-75
2023/10/31 10:52:05;;;;;;;3.40;0.30;;;12.00;96.50;;;;;;5088594;28;20402;-75
2023/10/31 10:54:42;;;;;;;4.00;0.30;;;12.40;93.30;;;;;;5086852;28;20418;-75
2023/10/31 10:57:27;;;;;;;5.53;0.32;;;12.60;92.10;;;;;;5087033;28;20406;-75
2023/10/31 10:59:58;;;;;;;6.00;0.50;;;13.00;91.50;;;;;;5078408;28;20407;-75
2023/10/31 11:02:24;;;;;;;3.93;0.30;;;13.30;88.00;;;;;;5073213;28;20465;-75
2023/10/31 11:04:51;;;;;;;5.20;0.55;;;13.50;81.80;;;;;;5088478;28;20399;-75
2023/10/31 11:07:18;;;;;;;5.28;0.70;;;14.00;89.20;;;;;;5086936;28;20406;-75
2023/10/31 11:09:46;;;;;;;4.05;0.50;;;14.90;74.60;;;;;;5087430;28;20470;-75
2023/10/31 11:12:13;;;;;;;3.50;0.45;;;15.00;57.40;;;;;;5087085;28;20408;-75
2023/10/31 11:14:40;;;;;;;5.28;0.60;;;14.80;56.40;;;;;;5087601;28;20417;-75
2023/10/31 11:17:12;;;;;;;4.75;0.70;;;15.50;70.00;;;;;;5088082;28;20463;-75
2023/10/31 11:19:38;;;;;;;6.18;0.50;;;16.60;57.30;;;;;;5086732;28;20410;-75
2023/10/31 11:22:06;;;;;;;6.45;0.80;;;16.70;42.40;;;;;;5087870;28;20410;-75
2023/10/31 11:24:36;;;;;;;4.87;0.83;;;16.90;28.90;;;;;;5121002;27;20441;-75
2023/10/31 11:27:05;;;;;;;4.25;0.55;;;16.80;32.90;;;;;;5087002;28;20424;-75
2023/10/31 11:29:31;;;;;;;5.07;0.57;;;16.30;17.60;;;;;;5086234;28;20410;-75
2023/10/31 11:31:57;;;;;;;5.00;0.67;;;15.90;26.70;;;;;;5087051;28;20409;-75
2023/10/31 11:34:26;;;;;;;6.50;0.70;;;15.50;26.70;;;;;;5087826;28;20465;-74
2023/10/31 11:36:52;;;;;;;6.75;0.73;;;15.00;27.70;;;;;;5086261;28;20615;-74
2023/10/31 11:39:25;;;;;;;6.07;0.77;;;14.60;33.10;;;;;;5087408;28;20409;-74
2023/10/31 11:41:55;;;;;;;6.57;0.70;;;14.40;34.00;;;;;;5076473;28;20410;-74
2023/10/31 11:44:29;;;;;;;7.30;0.75;;;14.10;41.40;;;;;;5087150;28;20479;-74
2023/10/31 11:46:58;;;;;;;5.03;0.73;;;13.90;41.80;;;;;;5088133;28;20956;-74
2023/10/31 11:49:47;;;;;;;6.43;0.80;;;13.80;46.60;;;;;;5088003;28;20406;-74
2023/10/31 11:52:17;;;;;;;9.63;1.08;;;14.00;52.30;;;;;;5087868;28;20406;-74
2023/10/31 11:54:43;;;;;;;5.70;0.60;;;14.10;46.00;;;;;;5085694;28;20402;-74
2023/10/31 11:57:08;;;;;;;6.65;0.75;;;14.00;38.40;;;;;;5087215;28;20405;-74
2023/10/31 11:59:38;;;;;;;6.23;0.73;;;13.80;38.30;;;;;;5087493;28;20413;-74
2023/10/31 12:02:18;;;;;;;5.90;0.95;;;13.60;39.40;;;;;;5078229;28;20427;-74
2023/10/31 12:04:44;;;;;;;7.47;1.40;;;13.40;44.30;;;;;;5091568;28;20394;-74
2023/10/31 12:07:10;;;;;;;5.55;0.80;;;13.30;41.90;;;;;;5090321;28;20956;-74
2023/10/31 12:09:48;;;;;;;7.37;0.93;;;13.20;40.70;;;;;;5091583;28;20397;-74
2023/10/31 12:12:14;;;;;;;5.93;0.70;;;13.10;40.90;;;;;;5089716;28;20895;-74
2023/10/31 12:14:40;;;;;;;6.35;0.70;;;13.10;45.30;;;;;;5090582;28;20410;-74
2023/10/31 12:17:09;;;;;;;6.37;0.80;;;13.10;38.30;;;;;;5074448;28;20404;-74
2023/10/31 12:19:36;;;;;;;5.37;0.60;;;13.10;40.70;;;;;;5082295;28;20760;-73
2023/10/31 12:22:02;;;;;;;5.75;0.80;;;13.10;40.20;;;;;;5090246;28;20416;-74
2023/10/31 12:24:28;;;;;;;7.05;0.75;;;13.10;36.80;;;;;;5089251;28;20492;-74
2023/10/31 12:26:54;;;;;;;5.80;0.82;;;13.00;36.70;;;;;;5090440;28;20436;-74
2023/10/31 12:29:20;;;;;;;6.37;0.70;;;13.00;41.90;;;;;;5090519;28;20965;-73
2023/10/31 12:31:51;;;;;;;4.55;0.70;;;12.80;39.20;;;;;;5089908;28;20412;-73
2023/10/31 12:34:19;;;;;;;6.47;0.90;;;12.80;41.70;;;;;;5090227;28;20424;-73
2023/10/31 12:36:48;;;;;;;7.20;0.80;;;12.70;41.30;;;;;;5087506;28;20406;-73
2023/10/31 12:39:14;;;;;;;7.35;0.90;;;12.60;44.20;;;;;;5089598;28;20414;-73
2023/10/31 12:41:41;;;;;;;5.75;0.75;;;12.60;39.40;;;;;;5089287;28;20460;-74